Fort Carson, Colorado
Current Conditions -  °F | °C
As of 1:58 PM on Thursday 18 Dec 2014 (Local Time) from KFCS Reporting Station
Broken Clouds Broken Clouds  
Wind Chill: 40°   Ceiling: 2800
Heat Index: 44°   Visibility: 10mi
Dew Point: 30°   Wind: 6mph
Humidity: 59%   Direction: NA
Pressure: 29.98"   Gusts: NA
Location:  38.74°N, 104.77°W
Report Text: KFCS 182058Z AUTO VRB05KT 10SM BKN028 06/M01 A2998 RMK AO2 BKN V SCT SLP192 T00641011 57016
Loading
Personal Weather Stations






























Interactive Weather Map New forecast layout! Learn more

10-Day Weather Forecast

Advertisements
Track Severe Weather on mobile